createdAt,value
2018-09-23T00:01:37.764Z,1.90
2018-09-23T00:04:06.300Z,1.97
2018-09-23T00:06:34.931Z,2.20
2018-09-23T00:09:03.816Z,2.20
2018-09-23T00:11:32.338Z,2.30
2018-09-23T00:14:00.928Z,2.37
2018-09-23T00:16:29.418Z,2.17
2018-09-23T00:18:57.982Z,2.20
2018-09-23T00:21:26.771Z,2.00
2018-09-23T00:23:55.513Z,1.97
2018-09-23T00:26:24.303Z,1.97
2018-09-23T00:28:52.961Z,2.13
2018-09-23T00:31:21.536Z,2.10
2018-09-23T00:33:50.172Z,2.17
2018-09-23T00:36:18.731Z,2.07
2018-09-23T00:38:47.367Z,2.10
2018-09-23T00:41:15.935Z,2.30
2018-09-23T00:43:44.402Z,2.00
2018-09-23T00:46:12.955Z,2.10
2018-09-23T00:48:41.386Z,1.80
2018-09-23T00:51:09.846Z,2.10
2018-09-23T00:53:38.324Z,1.87
2018-09-23T00:56:07.358Z,2.30
2018-09-23T00:58:35.994Z,2.30
2018-09-23T01:01:04.602Z,1.73
2018-09-23T01:03:33.065Z,2.10
2018-09-23T01:06:01.572Z,2.33
2018-09-23T01:08:30.378Z,2.20
2018-09-23T01:10:59.213Z,2.30
2018-09-23T01:13:27.903Z,2.00
2018-09-23T01:15:56.574Z,2.40
2018-09-23T01:18:25.024Z,2.23
2018-09-23T01:20:53.585Z,2.20
2018-09-23T01:23:22.395Z,2.37
2018-09-23T01:25:51.023Z,2.23
2018-09-23T01:28:19.473Z,2.10
2018-09-23T01:30:47.946Z,2.20
2018-09-23T01:33:16.504Z,2.00
2018-09-23T01:35:45.002Z,2.50
2018-09-23T01:38:13.629Z,1.83
2018-09-23T01:40:42.120Z,2.07
2018-09-23T01:43:10.814Z,1.80
2018-09-23T01:45:39.361Z,2.20
2018-09-23T01:48:07.939Z,2.17
2018-09-23T01:50:36.384Z,1.70
2018-09-23T01:53:04.959Z,2.00
2018-09-23T01:55:33.468Z,2.20
2018-09-23T01:58:02.101Z,2.33
2018-09-23T02:00:30.959Z,2.40
2018-09-23T02:02:59.514Z,2.33
2018-09-23T02:05:28.163Z,2.00
2018-09-23T02:07:56.950Z,2.20
2018-09-23T02:10:25.789Z,2.00
2018-09-23T02:12:54.240Z,2.10
2018-09-23T02:15:22.905Z,2.00
2018-09-23T02:17:51.528Z,2.00
2018-09-23T02:20:20.041Z,1.80
2018-09-23T02:22:48.502Z,2.00
2018-09-23T02:25:17.941Z,1.90
2018-09-23T02:27:46.436Z,2.23
2018-09-23T02:30:15.072Z,2.10
2018-09-23T02:32:43.891Z,2.07
2018-09-23T02:35:12.420Z,2.37
2018-09-23T02:37:40.933Z,2.20
2018-09-23T02:40:09.401Z,1.70
2018-09-23T02:42:37.969Z,2.30
2018-09-23T02:45:06.782Z,2.27
2018-09-23T02:47:35.699Z,2.00
2018-09-23T02:50:04.844Z,2.40
2018-09-23T02:52:33.559Z,2.23
2018-09-23T02:55:02.145Z,2.37
2018-09-23T02:57:30.622Z,2.20
2018-09-23T02:59:59.135Z,2.27
2018-09-23T03:02:27.735Z,2.20
2018-09-23T03:04:57.790Z,2.07
2018-09-23T03:07:27.095Z,1.93
2018-09-23T03:09:55.971Z,2.40
2018-09-23T03:12:24.873Z,2.00
2018-09-23T03:14:54.548Z,2.57
2018-09-23T03:17:24.492Z,2.17
2018-09-23T03:19:53.236Z,2.40
2018-09-23T03:22:22.046Z,2.23
2018-09-23T03:24:55.845Z,2.47
2018-09-23T03:27:24.568Z,2.10
2018-09-23T03:29:53.242Z,2.20
2018-09-23T03:32:21.984Z,1.87
2018-09-23T03:34:56.595Z,2.30
2018-09-23T03:37:25.051Z,2.33
2018-09-23T03:39:53.493Z,2.30
2018-09-23T03:42:22.009Z,2.07
2018-09-23T03:44:50.591Z,2.30
2018-09-23T03:47:19.127Z,2.50
2018-09-23T03:49:47.848Z,2.17
2018-09-23T03:52:16.412Z,2.10
2018-09-23T03:54:45.223Z,2.30
2018-09-23T03:57:13.783Z,2.40
2018-09-23T03:59:42.304Z,1.93
2018-09-23T04:02:10.926Z,2.10
2018-09-23T04:04:39.570Z,2.03
2018-09-23T04:07:08.114Z,2.27
2018-09-23T04:09:36.512Z,2.10
2018-09-23T04:12:05.030Z,1.90
2018-09-23T04:14:33.851Z,2.40
2018-09-23T04:17:02.323Z,2.30
2018-09-23T04:19:30.891Z,2.20
2018-09-23T04:21:59.445Z,2.23
2018-09-23T04:24:28.074Z,2.23
2018-09-23T04:26:56.628Z,1.97
2018-09-23T04:29:26.297Z,2.20
2018-09-23T04:31:55.019Z,2.30
2018-09-23T04:34:23.744Z,2.00
2018-09-23T04:36:52.282Z,2.40
2018-09-23T04:39:20.960Z,1.90
2018-09-23T04:41:49.503Z,2.10
2018-09-23T04:44:18.279Z,2.40
2018-09-23T04:46:46.884Z,2.10
2018-09-23T04:49:15.318Z,2.40
2018-09-23T04:51:43.877Z,1.87
2018-09-23T04:54:12.449Z,2.30
2018-09-23T04:56:41.803Z,2.33
2018-09-23T04:59:10.536Z,2.20
2018-09-23T05:01:39.274Z,2.00
2018-09-23T05:04:07.826Z,2.30
2018-09-23T05:06:36.293Z,2.30
2018-09-23T05:09:06.023Z,2.50
2018-09-23T05:11:34.485Z,1.77
2018-09-23T05:14:03.183Z,2.43
2018-09-23T05:16:31.752Z,2.50
2018-09-23T05:19:00.268Z,2.30
2018-09-23T05:21:28.825Z,2.20
2018-09-23T05:23:57.360Z,2.33
2018-09-23T05:26:25.926Z,2.17
2018-09-23T05:28:54.512Z,1.83
2018-09-23T05:31:23.051Z,2.30
2018-09-23T05:33:51.990Z,2.33
2018-09-23T05:36:20.615Z,2.20
2018-09-23T05:38:49.056Z,2.13
2018-09-23T05:41:17.581Z,2.20
2018-09-23T05:43:46.073Z,2.37
2018-09-23T05:46:14.568Z,1.90
2018-09-23T05:48:43.298Z,2.00
2018-09-23T05:51:12.175Z,2.30
2018-09-23T05:53:40.705Z,2.20
2018-09-23T05:56:09.355Z,2.30
2018-09-23T05:58:37.926Z,2.03
2018-09-23T06:01:06.719Z,1.90
2018-09-23T06:03:35.167Z,2.17
2018-09-23T06:06:03.911Z,2.20
2018-09-23T06:08:34.227Z,2.37
2018-09-23T06:11:02.799Z,2.03
2018-09-23T06:13:31.427Z,2.10
2018-09-23T06:15:59.965Z,2.03
2018-09-23T06:18:28.755Z,2.00
2018-09-23T06:20:57.281Z,2.33
2018-09-23T06:23:25.825Z,2.33
2018-09-23T06:25:59.409Z,2.40
2018-09-23T06:28:28.176Z,2.10
2018-09-23T06:30:57.779Z,2.63
2018-09-23T06:33:26.667Z,2.00
2018-09-23T06:35:55.227Z,2.30
2018-09-23T06:38:23.868Z,2.07
2018-09-23T06:40:52.677Z,1.87
2018-09-23T06:43:21.231Z,2.20
2018-09-23T06:45:49.856Z,2.00
2018-09-23T06:48:18.525Z,1.93
2018-09-23T06:50:47.151Z,2.40
2018-09-23T06:53:15.769Z,1.90
2018-09-23T06:55:44.530Z,2.30
2018-09-23T06:58:13.096Z,2.47
2018-09-23T07:00:41.679Z,2.03
2018-09-23T07:03:10.354Z,2.10
2018-09-23T07:05:39.275Z,2.17
2018-09-23T07:08:07.949Z,1.87
2018-09-23T07:10:36.607Z,1.70
2018-09-23T07:13:05.298Z,2.33
2018-09-23T07:15:33.919Z,2.57
2018-09-23T07:18:02.557Z,2.00
2018-09-23T07:20:30.983Z,2.20
2018-09-23T07:22:59.918Z,2.20
2018-09-23T07:25:28.463Z,2.50
2018-09-23T07:27:57.445Z,2.30
2018-09-23T07:30:26.282Z,2.77
2018-09-23T07:32:54.839Z,2.33
2018-09-23T07:35:23.407Z,2.27
2018-09-23T07:37:51.915Z,2.80
2018-09-23T07:40:20.371Z,2.17
2018-09-23T07:42:49.513Z,2.40
2018-09-23T07:45:18.395Z,2.13
2018-09-23T07:47:46.969Z,2.23
2018-09-23T07:50:15.507Z,2.73
2018-09-23T07:52:44.085Z,2.60
2018-09-23T07:55:12.605Z,2.80
2018-09-23T07:57:41.363Z,2.40
2018-09-23T08:00:10.507Z,2.40
2018-09-23T08:02:38.970Z,2.33
2018-09-23T08:05:07.607Z,2.67
2018-09-23T08:07:37.284Z,2.60
2018-09-23T08:10:06.132Z,2.17
2018-09-23T08:12:34.997Z,2.40
2018-09-23T08:15:03.721Z,2.40
2018-09-23T08:17:32.570Z,2.73
2018-09-23T08:20:05.685Z,2.50
2018-09-23T08:22:36.991Z,2.23
2018-09-23T08:25:06.016Z,2.40
2018-09-23T08:27:37.844Z,2.80
2018-09-23T08:30:08.103Z,2.50
2018-09-23T08:32:36.717Z,2.60
2018-09-23T08:35:05.269Z,3.07
2018-09-23T08:37:33.840Z,2.53
2018-09-23T08:40:02.669Z,2.20
2018-09-23T08:42:31.261Z,1.97
2018-09-23T08:44:59.988Z,2.20
2018-09-23T08:47:35.212Z,2.70
2018-09-23T08:50:06.478Z,2.60
2018-09-23T08:52:37.590Z,2.90
2018-09-23T08:55:06.636Z,2.90
2018-09-23T08:57:36.750Z,2.50
2018-09-23T09:00:08.242Z,2.80
2018-09-23T09:02:38.895Z,2.70
2018-09-23T09:05:07.745Z,2.50
2018-09-23T09:07:36.605Z,2.63
2018-09-23T09:10:05.279Z,2.83
2018-09-23T09:12:34.435Z,2.57
2018-09-23T09:15:03.530Z,2.47
2018-09-23T09:17:32.117Z,3.00
2018-09-23T09:20:00.893Z,2.90
2018-09-23T09:22:29.667Z,2.67
2018-09-23T09:24:58.280Z,3.30
2018-09-23T09:27:26.960Z,2.90
2018-09-23T09:29:55.546Z,3.30
2018-09-23T09:32:24.325Z,3.00
2018-09-23T09:34:53.253Z,3.03
2018-09-23T09:37:21.908Z,3.40
2018-09-23T09:39:50.504Z,3.07
2018-09-23T09:42:19.198Z,2.87
2018-09-23T09:44:47.812Z,2.73
2018-09-23T09:47:16.440Z,3.20
2018-09-23T09:49:45.022Z,2.80
2018-09-23T09:52:14.137Z,2.70
2018-09-23T09:54:43.649Z,2.70
2018-09-23T09:57:12.610Z,3.17
2018-09-23T09:59:41.412Z,3.30
2018-09-23T10:02:09.891Z,2.93
2018-09-23T10:04:38.503Z,3.17
2018-09-23T10:07:07.164Z,3.10
2018-09-23T10:09:37.205Z,2.80
2018-09-23T10:12:05.837Z,2.77
2018-09-23T10:14:34.485Z,2.40
2018-09-23T10:17:03.166Z,2.57
2018-09-23T10:19:31.912Z,2.70
2018-09-23T10:22:00.454Z,3.30
2018-09-23T10:24:29.204Z,2.70
2018-09-23T10:26:57.996Z,2.90
2018-09-23T10:29:26.577Z,2.77
2018-09-23T10:31:55.500Z,3.00
2018-09-23T10:34:24.107Z,2.83
2018-09-23T10:36:52.771Z,3.10
2018-09-23T10:39:21.437Z,2.87
2018-09-23T10:41:49.987Z,2.30
2018-09-23T10:44:18.699Z,2.83
2018-09-23T10:46:47.441Z,2.90
2018-09-23T10:49:16.204Z,2.73
2018-09-23T10:51:44.993Z,2.67
2018-09-23T10:54:21.778Z,3.03
2018-09-23T10:56:50.392Z,3.03
2018-09-23T10:59:19.351Z,3.10
2018-09-23T11:01:48.185Z,3.10
2018-09-23T11:04:16.798Z,3.10
2018-09-23T11:06:45.455Z,2.60
2018-09-23T11:09:14.017Z,2.87
2018-09-23T11:11:42.719Z,2.70
2018-09-23T11:14:11.305Z,2.57
2018-09-23T11:16:39.777Z,2.80
2018-09-23T11:19:08.307Z,2.67
2018-09-23T11:21:36.892Z,2.63
2018-09-23T11:24:05.619Z,3.20
2018-09-23T11:26:34.491Z,2.90
2018-09-23T11:29:03.111Z,2.93
2018-09-23T11:31:31.747Z,2.70
2018-09-23T11:34:00.281Z,3.03
2018-09-23T11:36:28.912Z,2.70
2018-09-23T11:38:57.517Z,2.80
2018-09-23T11:41:26.089Z,2.80
2018-09-23T11:43:54.608Z,2.87
2018-09-23T11:46:23.259Z,2.93
2018-09-23T11:48:51.790Z,3.03
2018-09-23T11:51:20.630Z,3.20
2018-09-23T11:53:49.240Z,2.70
2018-09-23T11:56:18.148Z,2.73
2018-09-23T11:58:46.779Z,2.73
2018-09-23T12:01:15.293Z,3.10
2018-09-23T12:03:43.859Z,2.70
2018-09-23T12:06:12.442Z,2.90
2018-09-23T12:08:41.015Z,2.90
2018-09-23T12:11:09.537Z,2.60
2018-09-23T12:13:38.301Z,2.50
2018-09-23T12:16:07.011Z,2.57
2018-09-23T12:18:35.651Z,2.40
2018-09-23T12:21:04.277Z,2.70
2018-09-23T12:23:32.761Z,2.37
2018-09-23T12:26:01.544Z,2.30
2018-09-23T12:28:30.084Z,2.20
2018-09-23T12:30:58.629Z,2.30
2018-09-23T12:33:27.495Z,2.20
2018-09-23T12:36:00.285Z,2.40
2018-09-23T12:38:28.871Z,2.30
2018-09-23T12:40:57.403Z,3.03
2018-09-23T12:43:26.138Z,2.70
2018-09-23T12:45:54.988Z,2.60
2018-09-23T12:48:23.489Z,2.37
2018-09-23T12:50:52.473Z,2.40
2018-09-23T12:53:21.159Z,3.03
2018-09-23T12:55:49.825Z,2.40
2018-09-23T12:58:18.739Z,3.00
2018-09-23T13:00:47.403Z,2.57
2018-09-23T13:03:16.195Z,2.70
2018-09-23T13:05:44.831Z,2.60
2018-09-23T13:08:13.625Z,2.27
2018-09-23T13:10:42.257Z,2.60
2018-09-23T13:13:11.083Z,2.53
2018-09-23T13:15:39.928Z,2.60
2018-09-23T13:18:09.463Z,2.70
2018-09-23T13:20:38.119Z,2.40
2018-09-23T13:23:07.053Z,2.80
2018-09-23T13:25:35.923Z,2.73
2018-09-23T13:28:04.764Z,2.37
2018-09-23T13:30:34.053Z,2.83
2018-09-23T13:33:02.566Z,2.60
2018-09-23T13:35:31.099Z,2.77
2018-09-23T13:37:59.713Z,3.10
2018-09-23T13:40:28.522Z,3.00
2018-09-23T13:42:57.120Z,2.60
2018-09-23T13:45:25.974Z,2.70
2018-09-23T13:47:54.529Z,2.67
2018-09-23T13:50:23.476Z,3.10
2018-09-23T13:52:52.554Z,3.00
2018-09-23T13:55:21.257Z,2.70
2018-09-23T13:57:50.267Z,2.70
2018-09-23T14:00:19.027Z,2.50
2018-09-23T14:02:47.631Z,2.93
2018-09-23T14:05:16.283Z,2.70
2018-09-23T14:07:44.824Z,2.60
2018-09-23T14:10:13.413Z,2.80
2018-09-23T14:12:42.011Z,2.70
2018-09-23T14:15:10.573Z,2.67
2018-09-23T14:17:39.351Z,2.57
2018-09-23T14:20:07.964Z,2.30
2018-09-23T14:22:36.488Z,2.77
2018-09-23T14:25:10.355Z,2.70
2018-09-23T14:27:39.176Z,2.80
2018-09-23T14:30:08.904Z,2.90
2018-09-23T14:32:37.522Z,2.60
2018-09-23T14:35:07.412Z,2.60
2018-09-23T14:37:36.146Z,2.23
2018-09-23T14:40:04.925Z,2.30
2018-09-23T14:42:33.758Z,2.00
2018-09-23T14:45:02.799Z,2.00
2018-09-23T14:47:31.415Z,2.70
2018-09-23T14:50:00.067Z,2.43
2018-09-23T14:52:28.869Z,2.43
2018-09-23T14:54:57.450Z,1.90
2018-09-23T14:57:26.233Z,2.00
2018-09-23T14:59:54.873Z,2.00
2018-09-23T15:02:24.331Z,1.87
2018-09-23T15:04:53.010Z,2.07
2018-09-23T15:10:01.736Z,2.20
2018-09-23T15:12:45.031Z,2.10
2018-09-23T15:15:13.971Z,2.40
2018-09-23T15:17:42.534Z,2.33
2018-09-23T15:20:11.089Z,1.90
2018-09-23T15:22:39.743Z,2.33
2018-09-23T15:25:08.471Z,2.33
2018-09-23T15:27:37.660Z,2.47
2018-09-23T15:30:06.398Z,2.13
2018-09-23T15:32:35.172Z,2.13
2018-09-23T15:35:04.740Z,1.97
2018-09-23T15:37:33.613Z,2.30
2018-09-23T15:40:02.172Z,2.33
2018-09-23T15:42:31.135Z,2.10
2018-09-23T15:45:00.238Z,2.03
2018-09-23T15:47:28.992Z,1.83
2018-09-23T15:49:57.658Z,1.77
2018-09-23T15:52:26.394Z,1.67
2018-09-23T15:54:55.260Z,2.00
2018-09-23T15:57:23.919Z,2.00
2018-09-23T15:59:52.585Z,1.90
2018-09-23T16:02:21.316Z,2.40
2018-09-23T16:04:50.090Z,2.30
2018-09-23T16:07:19.000Z,2.10
2018-09-23T16:09:47.920Z,2.20
2018-09-23T16:12:16.813Z,2.17
2018-09-23T16:14:45.622Z,2.10
2018-09-23T16:17:15.343Z,2.10
2018-09-23T16:19:44.066Z,1.90
2018-09-23T16:22:12.539Z,1.77
2018-09-23T16:24:41.547Z,1.63
2018-09-23T16:27:10.428Z,1.90
2018-09-23T16:29:39.090Z,2.20
2018-09-23T16:32:08.179Z,2.50
2018-09-23T16:34:37.764Z,2.30
2018-09-23T16:37:06.853Z,1.60
2018-09-23T16:39:35.605Z,1.50
2018-09-23T16:42:04.295Z,1.50
2018-09-23T16:44:33.175Z,1.60
2018-09-23T16:47:01.747Z,1.80
2018-09-23T16:49:30.741Z,1.77
2018-09-23T16:51:59.582Z,1.93
2018-09-23T16:54:28.616Z,1.60
2018-09-23T16:56:57.825Z,1.37
2018-09-23T16:59:26.579Z,1.70
2018-09-23T17:01:56.180Z,1.90
2018-09-23T17:04:24.982Z,1.50
2018-09-23T17:06:53.935Z,1.30
2018-09-23T17:09:23.007Z,1.70
2018-09-23T17:11:51.837Z,1.70
2018-09-23T17:14:20.916Z,1.50
2018-09-23T17:16:49.955Z,1.70
2018-09-23T17:19:18.812Z,1.80
2018-09-23T17:21:47.617Z,1.70
2018-09-23T17:24:16.336Z,1.70
2018-09-23T17:26:45.127Z,1.83
2018-09-23T17:29:14.176Z,1.83
2018-09-23T17:31:43.090Z,2.00
2018-09-23T17:34:11.998Z,1.90
2018-09-23T17:36:46.078Z,2.30
2018-09-23T17:39:14.705Z,2.77
2018-09-23T17:41:43.611Z,2.20
2018-09-23T17:44:12.845Z,2.20
2018-09-23T17:46:41.704Z,2.10
2018-09-23T17:49:11.192Z,2.10
2018-09-23T17:51:39.809Z,2.30
2018-09-23T17:54:08.858Z,2.80
2018-09-23T17:56:37.472Z,3.07
2018-09-23T17:59:06.241Z,3.77
2018-09-23T18:01:34.940Z,3.33
2018-09-23T18:04:03.996Z,3.30
2018-09-23T18:06:32.811Z,2.70
2018-09-23T18:09:01.859Z,2.60
2018-09-23T18:11:30.478Z,2.47
2018-09-23T18:13:59.591Z,2.53
2018-09-23T18:16:28.478Z,2.60
2018-09-23T18:18:57.360Z,3.00
2018-09-23T18:21:26.326Z,2.67
2018-09-23T18:23:55.164Z,1.87
2018-09-23T18:29:23.137Z,2.07
2018-09-23T18:31:52.479Z,1.60
2018-09-23T18:34:21.399Z,1.73
2018-09-23T18:36:50.438Z,2.60
2018-09-23T18:39:19.184Z,2.23
2018-09-23T18:41:48.792Z,2.13
2018-09-23T18:44:17.765Z,2.07
2018-09-23T18:46:47.478Z,2.40
2018-09-23T18:49:16.562Z,2.50
2018-09-23T18:51:45.856Z,2.70
2018-09-23T18:54:19.884Z,2.80
2018-09-23T18:56:48.935Z,3.80
2018-09-23T18:59:17.620Z,3.70
2018-09-23T19:01:46.524Z,3.23
2018-09-23T19:04:15.286Z,3.40
2018-09-23T19:06:53.274Z,3.50
2018-09-23T19:09:22.483Z,2.70
2018-09-23T19:11:51.640Z,3.17
2018-09-23T19:14:21.175Z,2.67
2018-09-23T19:16:49.812Z,2.63
2018-09-23T19:19:18.603Z,2.87
2018-09-23T19:21:47.450Z,2.33
2018-09-23T19:24:16.488Z,2.30
2018-09-23T19:26:45.307Z,2.27
2018-09-23T19:29:13.874Z,2.50
2018-09-23T19:31:42.766Z,2.60
2018-09-23T19:34:11.343Z,2.60
2018-09-23T19:36:41.492Z,2.60
2018-09-23T19:39:10.404Z,2.67
2018-09-23T19:41:39.418Z,2.17
2018-09-23T19:44:08.486Z,2.30
2018-09-23T19:46:37.330Z,2.50
2018-09-23T19:49:06.984Z,2.07
2018-09-23T19:51:35.890Z,2.40
2018-09-23T19:54:05.080Z,2.97
2018-09-23T19:56:34.380Z,2.47
2018-09-23T19:59:04.237Z,2.70
2018-09-23T20:01:34.202Z,2.37
2018-09-23T20:04:03.094Z,1.70
2018-09-23T20:06:32.058Z,2.10
2018-09-23T20:09:01.315Z,2.00
2018-09-23T20:11:29.998Z,2.10
2018-09-23T20:13:58.692Z,1.90
2018-09-23T20:16:27.478Z,2.20
2018-09-23T20:18:56.456Z,2.10
2018-09-23T20:21:25.464Z,2.10
2018-09-23T20:23:54.090Z,2.50
2018-09-23T20:26:27.722Z,2.07
2018-09-23T20:28:56.826Z,2.23
2018-09-23T20:31:25.826Z,2.20
2018-09-23T20:33:54.779Z,2.23
2018-09-23T20:36:23.813Z,2.37
2018-09-23T20:38:52.644Z,2.50
2018-09-23T20:41:21.305Z,1.90
2018-09-23T20:43:49.905Z,2.77
2018-09-23T20:46:18.495Z,3.40
2018-09-23T20:48:47.034Z,3.40
2018-09-23T20:51:16.038Z,2.60
2018-09-23T20:53:44.935Z,2.80
2018-09-23T20:56:13.952Z,2.13
2018-09-23T20:58:42.812Z,2.50
2018-09-23T21:01:11.408Z,2.40
2018-09-23T21:03:39.926Z,2.87
2018-09-23T21:06:08.846Z,2.47
2018-09-23T21:08:37.377Z,2.30
2018-09-23T21:11:05.938Z,2.30
2018-09-23T21:13:34.462Z,2.80
2018-09-23T21:21:53.728Z,2.37
2018-09-23T21:24:22.496Z,2.77
2018-09-23T21:26:51.793Z,3.13
2018-09-23T21:29:20.835Z,3.10
2018-09-23T21:31:49.624Z,2.80
2018-09-23T21:34:18.197Z,2.87
2018-09-23T21:36:47.090Z,3.03
2018-09-23T21:39:15.692Z,3.20
2018-09-23T21:41:44.428Z,3.07
2018-09-23T21:44:13.174Z,3.20
2018-09-23T21:46:41.714Z,3.07
2018-09-23T21:49:10.265Z,3.70
2018-09-23T21:51:38.890Z,3.20
2018-09-23T21:54:07.796Z,3.23
2018-09-23T21:56:36.461Z,3.57
2018-09-23T21:59:06.204Z,3.30
2018-09-23T22:01:35.085Z,3.10
2018-09-23T22:04:04.090Z,3.23
2018-09-23T22:06:51.676Z,3.13
2018-09-23T22:09:20.778Z,3.10
2018-09-23T22:11:49.396Z,3.40
2018-09-23T22:14:18.090Z,3.87
2018-09-23T22:16:46.823Z,3.43
2018-09-23T22:19:15.917Z,3.57
2018-09-23T22:21:45.151Z,3.53
2018-09-23T22:24:14.436Z,3.80
2018-09-23T22:26:43.534Z,3.40
2018-09-23T22:29:12.734Z,3.70
2018-09-23T22:31:41.530Z,3.33
2018-09-23T22:34:10.188Z,3.63
2018-09-23T22:36:39.171Z,3.53
2018-09-23T22:39:08.262Z,4.07
2018-09-23T22:41:39.470Z,3.67
2018-09-23T22:44:09.840Z,3.70
2018-09-23T22:46:38.773Z,3.70
2018-09-23T22:49:07.417Z,3.67
2018-09-23T22:51:35.907Z,4.20
2018-09-23T22:54:04.429Z,3.87
2018-09-23T22:56:32.990Z,4.10
2018-09-23T22:59:01.448Z,3.83
2018-09-23T23:01:30.144Z,3.80
2018-09-23T23:03:58.603Z,3.90
2018-09-23T23:06:27.105Z,4.17
2018-09-23T23:08:57.096Z,3.93
2018-09-23T23:11:25.682Z,3.90
2018-09-23T23:13:54.218Z,4.20
2018-09-23T23:16:22.749Z,3.90
2018-09-23T23:18:51.290Z,4.10
2018-09-23T23:21:20.847Z,3.90
2018-09-23T23:23:49.440Z,3.40
2018-09-23T23:26:18.037Z,4.00
2018-09-23T23:28:46.494Z,3.63
2018-09-23T23:31:14.993Z,3.60
2018-09-23T23:33:43.552Z,3.70
2018-09-23T23:36:11.982Z,3.67
2018-09-23T23:38:40.540Z,2.90
2018-09-23T23:41:09.438Z,3.27
2018-09-23T23:43:38.601Z,3.20
2018-09-23T23:46:07.224Z,3.23
2018-09-23T23:48:35.884Z,2.83
2018-09-23T23:51:04.458Z,2.80
2018-09-23T23:53:33.076Z,2.80
2018-09-23T23:56:01.640Z,2.63
2018-09-23T23:58:30.509Z,3.10
